メインページ
METAR-TAF:

METAR-TAF

空港 :

Tabas, イラン

緯度: 33-36N, 経度: 056-55E, 海抜: 710m

現時点の気象観測

当レポートは51分前の04:00(UTC)に作成
南東の風 2kt
気温 22°C
湿度 31%
気圧 1007 hPa

METAR: OIMT 220400Z AUTO 14002KT //// // ////// 22/04 Q1007

時間: 09:21 (04:51 UTC)


TAF: 見つかりません

4,000以上の空港の気象観測と天気予報(METAR報とTAF報)

利用可能な観測所は地図上に黄色い丸と赤い丸で示す。

丸の上にカーソルを重ねると観測所名を参照できる。

次にクリックすると気象観測と天気予報を参照できる。

マップの切り替え:黒色「×」印の緑ボタンをクリックして拡大、「-」印の緑ボタンをクリックして縮小、緑色の三角印をクリックして隣りの地図に切り替え


METAR-TAF: